sensor_id;sensor_type;location;lat;lon;timestamp;pressure;altitude;pressure_sealevel;temperature;humidity
2178;BME280;1095;50.992;6.798;2023-04-29T00:01:14;100616.22;;;12.14;98.81
2178;BME280;1095;50.992;6.798;2023-04-29T00:03:42;100620.16;;;12.10;98.81
2178;BME280;1095;50.992;6.798;2023-04-29T00:06:11;100625.06;;;12.13;99.13
2178;BME280;1095;50.992;6.798;2023-04-29T00:08:38;100616.88;;;12.08;99.24
2178;BME280;1095;50.992;6.798;2023-04-29T00:11:04;100620.31;;;12.09;99.76
2178;BME280;1095;50.992;6.798;2023-04-29T00:13:31;100618.84;;;12.06;99.83
2178;BME280;1095;50.992;6.798;2023-04-29T00:15:58;100621.47;;;11.98;99.57
2178;BME280;1095;50.992;6.798;2023-04-29T00:18:24;100625.09;;;11.97;99.27
2178;BME280;1095;50.992;6.798;2023-04-29T00:20:52;100633.28;;;12.02;99.52
2178;BME280;1095;50.992;6.798;2023-04-29T00:23:19;100619.69;;;11.99;99.08
2178;BME280;1095;50.992;6.798;2023-04-29T00:25:48;100628.34;;;11.99;98.60
2178;BME280;1095;50.992;6.798;2023-04-29T00:28:17;100633.28;;;11.94;98.07
2178;BME280;1095;50.992;6.798;2023-04-29T00:30:44;100638.84;;;11.91;97.97
2178;BME280;1095;50.992;6.798;2023-04-29T00:33:10;100635.75;;;11.95;97.53
2178;BME280;1095;50.992;6.798;2023-04-29T00:35:38;100647.38;;;11.93;96.71
2178;BME280;1095;50.992;6.798;2023-04-29T00:38:06;100651.47;;;11.95;96.23
2178;BME280;1095;50.992;6.798;2023-04-29T00:40:33;100647.03;;;11.88;95.77
2178;BME280;1095;50.992;6.798;2023-04-29T00:43:00;100652.13;;;11.89;95.67
2178;BME280;1095;50.992;6.798;2023-04-29T00:45:26;100648.34;;;11.84;96.10
2178;BME280;1095;50.992;6.798;2023-04-29T00:47:53;100648.34;;;11.84;96.43
2178;BME280;1095;50.992;6.798;2023-04-29T00:50:20;100652.59;;;11.85;96.85
2178;BME280;1095;50.992;6.798;2023-04-29T00:52:47;100648.72;;;11.81;97.11
2178;BME280;1095;50.992;6.798;2023-04-29T00:55:18;100661.13;;;11.71;97.63
2178;BME280;1095;50.992;6.798;2023-04-29T00:57:47;100653.59;;;11.76;98.16
2178;BME280;1095;50.992;6.798;2023-04-29T01:00:17;100659.16;;;11.73;98.46
2178;BME280;1095;50.992;6.798;2023-04-29T01:02:46;100662.41;;;11.67;99.25
2178;BME280;1095;50.992;6.798;2023-04-29T01:05:13;100667.16;;;11.63;99.48
2178;BME280;1095;50.992;6.798;2023-04-29T01:07:48;100670.28;;;11.67;100.00
2178;BME280;1095;50.992;6.798;2023-04-29T01:10:26;100668.47;;;11.59;100.00
2178;BME280;1095;50.992;6.798;2023-04-29T01:12:59;100670.44;;;11.57;100.00
2178;BME280;1095;50.992;6.798;2023-04-29T01:15:31;100672.72;;;11.52;100.00
2178;BME280;1095;50.992;6.798;2023-04-29T01:18:04;100666.81;;;11.50;100.00
2178;BME280;1095;50.992;6.798;2023-04-29T01:20:31;100672.88;;;11.50;100.00
2178;BME280;1095;50.992;6.798;2023-04-29T01:22:59;100674.47;;;11.43;100.00
2178;BME280;1095;50.992;6.798;2023-04-29T01:25:27;100675.13;;;11.37;100.00
2178;BME280;1095;50.992;6.798;2023-04-29T01:28:03;100678.09;;;11.34;100.00
2178;BME280;1095;50.992;6.798;2023-04-29T01:30:41;100681.31;;;11.20;100.00
2178;BME280;1095;50.992;6.798;2023-04-29T01:33:24;100685.88;;;11.18;100.00
2178;BME280;1095;50.992;6.798;2023-04-29T01:36:04;100687.84;;;11.16;100.00
2178;BME280;1095;50.992;6.798;2023-04-29T01:38:36;100693.72;;;11.10;100.00
2178;BME280;1095;50.992;6.798;2023-04-29T01:41:13;100693.72;;;11.10;100.00
2178;BME280;1095;50.992;6.798;2023-04-29T01:43:42;100687.50;;;11.11;100.00
2178;BME280;1095;50.992;6.798;2023-04-29T01:46:12;100690.75;;;11.05;100.00
2178;BME280;1095;50.992;6.798;2023-04-29T01:48:42;100690.53;;;10.98;100.00
2178;BME280;1095;50.992;6.798;2023-04-29T01:51:09;100694.19;;;11.05;100.00
2178;BME280;1095;50.992;6.798;2023-04-29T01:53:36;100697.56;;;10.97;100.00
2178;BME280;1095;50.992;6.798;2023-04-29T01:56:05;100695.13;;;10.96;100.00
2178;BME280;1095;50.992;6.798;2023-04-29T01:58:35;100691.16;;;10.92;100.00
2178;BME280;1095;50.992;6.798;2023-04-29T02:01:04;100694.44;;;10.94;100.00
2178;BME280;1095;50.992;6.798;2023-04-29T02:03:34;100696.28;;;11.02;100.00
2178;BME280;1095;50.992;6.798;2023-04-29T02:06:01;100698.88;;;10.93;100.00
2178;BME280;1095;50.992;6.798;2023-04-29T02:08:28;100695.28;;;10.94;100.00
2178;BME280;1095;50.992;6.798;2023-04-29T02:10:56;100700.50;;;10.94;100.00
2178;BME280;1095;50.992;6.798;2023-04-29T02:13:23;100702.78;;;10.89;100.00
2178;BME280;1095;50.992;6.798;2023-04-29T02:15:51;100704.09;;;10.93;100.00
2178;BME280;1095;50.992;6.798;2023-04-29T02:18:18;100710.47;;;10.91;100.00
2178;BME280;1095;50.992;6.798;2023-04-29T02:20:44;100710.47;;;10.91;100.00
2178;BME280;1095;50.992;6.798;2023-04-29T02:23:11;100706.38;;;10.88;100.00
2178;BME280;1095;50.992;6.798;2023-04-29T02:25:38;100712.28;;;10.90;100.00
2178;BME280;1095;50.992;6.798;2023-04-29T02:28:04;100711.13;;;10.85;100.00
2178;BME280;1095;50.992;6.798;2023-04-29T02:30:31;100723.34;;;10.76;100.00
2178;BME280;1095;50.992;6.798;2023-04-29T02:32:59;100719.34;;;10.64;100.00
2178;BME280;1095;50.992;6.798;2023-04-29T02:35:27;100712.59;;;10.61;100.00
2178;BME280;1095;50.992;6.798;2023-04-29T02:37:54;100721.59;;;10.59;100.00
2178;BME280;1095;50.992;6.798;2023-04-29T02:40:21;100716.72;;;10.64;100.00
2178;BME280;1095;50.992;6.798;2023-04-29T02:42:49;100717.06;;;10.69;100.00
2178;BME280;1095;50.992;6.798;2023-04-29T02:45:16;100722.63;;;10.66;100.00
2178;BME280;1095;50.992;6.798;2023-04-29T02:47:43;100725.59;;;10.71;100.00
2178;BME280;1095;50.992;6.798;2023-04-29T02:50:11;100729.03;;;10.72;100.00
2178;BME280;1095;50.992;6.798;2023-04-29T02:52:37;100735.03;;;10.64;100.00
2178;BME280;1095;50.992;6.798;2023-04-29T02:55:06;100730.63;;;10.64;100.00
2178;BME280;1095;50.992;6.798;2023-04-29T02:57:33;100739.75;;;10.60;100.00
2178;BME280;1095;50.992;6.798;2023-04-29T02:59:59;100742.81;;;10.56;100.00
2178;BME280;1095;50.992;6.798;2023-04-29T03:02:26;100725.63;;;10.53;100.00
2178;BME280;1095;50.992;6.798;2023-04-29T03:04:53;100749.09;;;10.63;100.00
2178;BME280;1095;50.992;6.798;2023-04-29T03:07:21;100747.03;;;10.49;100.00
2178;BME280;1095;50.992;6.798;2023-04-29T03:09:47;100745.16;;;10.41;100.00
2178;BME280;1095;50.992;6.798;2023-04-29T03:12:14;100752.56;;;10.46;100.00
2178;BME280;1095;50.992;6.798;2023-04-29T03:14:41;100752.53;;;10.38;100.00
2178;BME280;1095;50.992;6.798;2023-04-29T03:17:07;100767.53;;;10.36;100.00
2178;BME280;1095;50.992;6.798;2023-04-29T03:19:34;100772.25;;;10.32;100.00
2178;BME280;1095;50.992;6.798;2023-04-29T03:22:01;100769.78;;;10.30;100.00
2178;BME280;1095;50.992;6.798;2023-04-29T03:24:29;100774.28;;;10.20;100.00
2178;BME280;1095;50.992;6.798;2023-04-29T03:26:55;100780.47;;;10.19;100.00
2178;BME280;1095;50.992;6.798;2023-04-29T03:29:24;100788.13;;;10.03;100.00
2178;BME280;1095;50.992;6.798;2023-04-29T03:31:51;100784.53;;;10.04;100.00
2178;BME280;1095;50.992;6.798;2023-04-29T03:34:18;100793.34;;;10.03;100.00
2178;BME280;1095;50.992;6.798;2023-04-29T03:36:45;100792.28;;;9.96;100.00
2178;BME280;1095;50.992;6.798;2023-04-29T03:39:11;100796.25;;;9.82;100.00
2178;BME280;1095;50.992;6.798;2023-04-29T03:41:39;100811.94;;;9.82;100.00
2178;BME280;1095;50.992;6.798;2023-04-29T03:44:06;100808.13;;;9.77;100.00
2178;BME280;1095;50.992;6.798;2023-04-29T03:46:33;100818.03;;;9.73;100.00
2178;BME280;1095;50.992;6.798;2023-04-29T03:48:59;100813.97;;;9.61;100.00
2178;BME280;1095;50.992;6.798;2023-04-29T03:51:26;100825.63;;;9.67;100.00
2178;BME280;1095;50.992;6.798;2023-04-29T03:53:54;100818.91;;;9.64;100.00
2178;BME280;1095;50.992;6.798;2023-04-29T03:56:22;100809.13;;;9.66;100.00
2178;BME280;1095;50.992;6.798;2023-04-29T03:58:51;100818.06;;;9.63;100.00
2178;BME280;1095;50.992;6.798;2023-04-29T04:01:17;100814.78;;;9.61;100.00
2178;BME280;1095;50.992;6.798;2023-04-29T04:03:45;100823.03;;;9.67;100.00
2178;BME280;1095;50.992;6.798;2023-04-29T04:06:12;100826.31;;;9.69;100.00
2178;BME280;1095;50.992;6.798;2023-04-29T04:08:41;100832.50;;;9.68;100.00
2178;BME280;1095;50.992;6.798;2023-04-29T04:11:07;100823.31;;;9.63;100.00
2178;BME280;1095;50.992;6.798;2023-04-29T04:13:34;100824.38;;;9.71;100.00
2178;BME280;1095;50.992;6.798;2023-04-29T04:16:02;100831.97;;;9.64;100.00
2178;BME280;1095;50.992;6.798;2023-04-29T04:18:29;100835.69;;;9.61;100.00
2178;BME280;1095;50.992;6.798;2023-04-29T04:20:55;100843.53;;;9.61;100.00
2178;BME280;1095;50.992;6.798;2023-04-29T04:23:22;100842.88;;;9.50;100.00
2178;BME280;1095;50.992;6.798;2023-04-29T04:25:49;100842.34;;;9.46;100.00
2178;BME280;1095;50.992;6.798;2023-04-29T04:28:17;100845.34;;;9.51;100.00
2178;BME280;1095;50.992;6.798;2023-04-29T04:30:45;100849.31;;;9.55;100.00
2178;BME280;1095;50.992;6.798;2023-04-29T04:33:13;100846.59;;;9.47;100.00
2178;BME280;1095;50.992;6.798;2023-04-29T04:35:40;100856.47;;;9.53;100.00
2178;BME280;1095;50.992;6.798;2023-04-29T04:38:06;100855.41;;;9.46;100.00
2178;BME280;1095;50.992;6.798;2023-04-29T04:40:33;100855.81;;;9.51;100.00
2178;BME280;1095;50.992;6.798;2023-04-29T04:43:00;100862.94;;;9.59;100.00
2178;BME280;1095;50.992;6.798;2023-04-29T04:45:27;100861.72;;;9.53;100.00
2178;BME280;1095;50.992;6.798;2023-04-29T04:47:54;100871.19;;;9.54;100.00
2178;BME280;1095;50.992;6.798;2023-04-29T04:50:22;100871.19;;;9.54;100.00
2178;BME280;1095;50.992;6.798;2023-04-29T04:52:48;100874.78;;;9.53;100.00
2178;BME280;1095;50.992;6.798;2023-04-29T04:55:15;100874.78;;;9.53;100.00
2178;BME280;1095;50.992;6.798;2023-04-29T04:57:41;100884.13;;;9.56;100.00
2178;BME280;1095;50.992;6.798;2023-04-29T05:00:09;100881.09;;;9.51;100.00
2178;BME280;1095;50.992;6.798;2023-04-29T05:02:36;100885.75;;;9.57;100.00
2178;BME280;1095;50.992;6.798;2023-04-29T05:05:03;100886.88;;;9.54;100.00
2178;BME280;1095;50.992;6.798;2023-04-29T05:07:31;100892.50;;;9.50;100.00
2178;BME280;1095;50.992;6.798;2023-04-29T05:10:00;100903.38;;;9.55;100.00
2178;BME280;1095;50.992;6.798;2023-04-29T05:12:27;100902.25;;;9.57;100.00
2178;BME280;1095;50.992;6.798;2023-04-29T05:14:55;100910.81;;;9.50;100.00
2178;BME280;1095;50.992;6.798;2023-04-29T05:17:22;100908.72;;;9.53;100.00
2178;BME280;1095;50.992;6.798;2023-04-29T05:19:49;100914.34;;;9.58;100.00
2178;BME280;1095;50.992;6.798;2023-04-29T05:22:15;100912.16;;;9.54;100.00
2178;BME280;1095;50.992;6.798;2023-04-29T05:24:43;100913.53;;;9.58;100.00
2178;BME280;1095;50.992;6.798;2023-04-29T05:27:12;100916.69;;;9.61;100.00
2178;BME280;1095;50.992;6.798;2023-04-29T05:29:39;100919.13;;;9.73;100.00
2178;BME280;1095;50.992;6.798;2023-04-29T05:32:05;100913.22;;;9.71;100.00
2178;BME280;1095;50.992;6.798;2023-04-29T05:34:32;100921.75;;;9.73;100.00
2178;BME280;1095;50.992;6.798;2023-04-29T05:36:59;100910.91;;;9.58;100.00
2178;BME280;1095;50.992;6.798;2023-04-29T05:39:25;100926.16;;;9.62;100.00
2178;BME280;1095;50.992;6.798;2023-04-29T05:41:53;100921.19;;;9.69;100.00
2178;BME280;1095;50.992;6.798;2023-04-29T05:44:20;100931.91;;;9.76;100.00
2178;BME280;1095;50.992;6.798;2023-04-29T05:46:47;100928.84;;;9.90;100.00
2178;BME280;1095;50.992;6.798;2023-04-29T05:49:15;100931.34;;;9.82;100.00
2178;BME280;1095;50.992;6.798;2023-04-29T05:51:42;100935.44;;;9.84;100.00
2178;BME280;1095;50.992;6.798;2023-04-29T05:54:09;100931.72;;;9.87;100.00
2178;BME280;1095;50.992;6.798;2023-04-29T05:56:35;100932.31;;;9.81;100.00
2178;BME280;1095;50.992;6.798;2023-04-29T05:59:03;100937.41;;;9.73;100.00
2178;BME280;1095;50.992;6.798;2023-04-29T06:01:30;100949.75;;;9.90;100.00
2178;BME280;1095;50.992;6.798;2023-04-29T06:03:57;100943.63;;;9.99;100.00
2178;BME280;1095;50.992;6.798;2023-04-29T06:06:24;100940.56;;;10.04;100.00
2178;BME280;1095;50.992;6.798;2023-04-29T06:08:50;100943.34;;;10.02;100.00
2178;BME280;1095;50.992;6.798;2023-04-29T06:11:17;100952.97;;;10.02;100.00
2178;BME280;1095;50.992;6.798;2023-04-29T06:13:44;100957.13;;;9.94;100.00
2178;BME280;1095;50.992;6.798;2023-04-29T06:16:12;100956.00;;;9.97;100.00
2178;BME280;1095;50.992;6.798;2023-04-29T06:18:39;100961.50;;;10.04;100.00
2178;BME280;1095;50.992;6.798;2023-04-29T06:21:05;100968.75;;;10.10;100.00
2178;BME280;1095;50.992;6.798;2023-04-29T06:23:32;100961.88;;;10.09;100.00
2178;BME280;1095;50.992;6.798;2023-04-29T06:25:59;100969.97;;;10.15;100.00
2178;BME280;1095;50.992;6.798;2023-04-29T06:28:25;100975.78;;;10.09;100.00
2178;BME280;1095;50.992;6.798;2023-04-29T06:30:53;100976.19;;;10.14;100.00
2178;BME280;1095;50.992;6.798;2023-04-29T06:33:21;100982.38;;;10.13;100.00
2178;BME280;1095;50.992;6.798;2023-04-29T06:35:47;100983.09;;;10.06;100.00
2178;BME280;1095;50.992;6.798;2023-04-29T06:38:17;100984.75;;;10.07;100.00
2178;BME280;1095;50.992;6.798;2023-04-29T06:40:44;100992.28;;;10.10;100.00
2178;BME280;1095;50.992;6.798;2023-04-29T06:43:12;100989.28;;;10.05;100.00
2178;BME280;1095;50.992;6.798;2023-04-29T06:45:39;100990.50;;;10.20;100.00
2178;BME280;1095;50.992;6.798;2023-04-29T06:48:05;101007.94;;;10.29;100.00
2178;BME280;1095;50.992;6.798;2023-04-29T06:50:33;101005.56;;;10.36;100.00
2178;BME280;1095;50.992;6.798;2023-04-29T06:53:00;101008.72;;;10.39;100.00
2178;BME280;1095;50.992;6.798;2023-04-29T06:55:27;101003.72;;;10.46;100.00
2178;BME280;1095;50.992;6.798;2023-04-29T06:57:53;101013.59;;;10.52;100.00
2178;BME280;1095;50.992;6.798;2023-04-29T07:00:20;101009.09;;;10.72;100.00
2178;BME280;1095;50.992;6.798;2023-04-29T07:07:46;101007.59;;;10.69;100.00
2178;BME280;1095;50.992;6.798;2023-04-29T07:10:12;101021.06;;;10.92;100.00
2178;BME280;1095;50.992;6.798;2023-04-29T07:12:39;101022.72;;;11.11;100.00
2178;BME280;1095;50.992;6.798;2023-04-29T07:15:06;101036.13;;;11.25;100.00
2178;BME280;1095;50.992;6.798;2023-04-29T07:17:33;101032.75;;;11.33;100.00
2178;BME280;1095;50.992;6.798;2023-04-29T07:20:00;101028.16;;;11.35;100.00
2178;BME280;1095;50.992;6.798;2023-04-29T07:22:26;101040.22;;;11.28;99.87
2178;BME280;1095;50.992;6.798;2023-04-29T07:24:54;101043.03;;;11.52;98.97
2178;BME280;1095;50.992;6.798;2023-04-29T07:27:22;101050.59;;;11.55;98.48
2178;BME280;1095;50.992;6.798;2023-04-29T07:29:48;101047.44;;;11.52;97.75
2178;BME280;1095;50.992;6.798;2023-04-29T07:32:15;101052.03;;;11.50;97.73
2178;BME280;1095;50.992;6.798;2023-04-29T07:34:42;101064.44;;;11.48;97.23
2178;BME280;1095;50.992;6.798;2023-04-29T07:37:08;101064.00;;;11.52;96.96
2178;BME280;1095;50.992;6.798;2023-04-29T07:39:35;101060.94;;;11.39;96.39
2178;BME280;1095;50.992;6.798;2023-04-29T07:42:03;101066.03;;;11.58;95.75
2178;BME280;1095;50.992;6.798;2023-04-29T07:44:29;101063.41;;;11.58;95.45
2178;BME280;1095;50.992;6.798;2023-04-29T07:46:56;101066.56;;;11.80;95.35
2178;BME280;1095;50.992;6.798;2023-04-29T07:49:22;101063.78;;;11.63;94.45
2178;BME280;1095;50.992;6.798;2023-04-29T07:51:50;101072.09;;;11.59;93.90
2178;BME280;1095;50.992;6.798;2023-04-29T07:54:16;101071.19;;;11.68;94.41
2178;BME280;1095;50.992;6.798;2023-04-29T07:56:44;101074.03;;;11.75;94.17
2178;BME280;1095;50.992;6.798;2023-04-29T07:59:12;101081.91;;;11.57;93.63
2178;BME280;1095;50.992;6.798;2023-04-29T08:01:39;101079.81;;;11.25;93.44
2178;BME280;1095;50.992;6.798;2023-04-29T08:04:06;101074.72;;;11.23;93.65
2178;BME280;1095;50.992;6.798;2023-04-29T08:06:33;101094.88;;;11.23;94.16
2178;BME280;1095;50.992;6.798;2023-04-29T08:09:00;101091.47;;;11.13;94.56
2178;BME280;1095;50.992;6.798;2023-04-29T08:11:26;101092.66;;;11.01;95.07
2178;BME280;1095;50.992;6.798;2023-04-29T08:13:53;101105.56;;;11.12;95.14
2178;BME280;1095;50.992;6.798;2023-04-29T08:16:24;101096.16;;;10.91;95.78
2178;BME280;1095;50.992;6.798;2023-04-29T08:18:51;101101.09;;;10.94;95.56
2178;BME280;1095;50.992;6.798;2023-04-29T08:21:18;101098.88;;;11.00;95.92
2178;BME280;1095;50.992;6.798;2023-04-29T08:23:45;101106.44;;;11.03;96.04
2178;BME280;1095;50.992;6.798;2023-04-29T08:26:12;101119.03;;;11.17;96.46
2178;BME280;1095;50.992;6.798;2023-04-29T08:28:38;101110.03;;;11.02;95.94
2178;BME280;1095;50.992;6.798;2023-04-29T08:31:05;101106.38;;;11.12;95.71
2178;BME280;1095;50.992;6.798;2023-04-29T08:33:33;101109.22;;;11.19;95.37
2178;BME280;1095;50.992;6.798;2023-04-29T08:36:00;101107.00;;;11.24;95.24
2178;BME280;1095;50.992;6.798;2023-04-29T08:38:28;101113.00;;;11.34;94.54
2178;BME280;1095;50.992;6.798;2023-04-29T08:40:55;101112.59;;;11.64;93.51
2178;BME280;1095;50.992;6.798;2023-04-29T08:43:22;101118.63;;;12.01;92.35
2178;BME280;1095;50.992;6.798;2023-04-29T08:45:49;101121.69;;;12.14;91.26
2178;BME280;1095;50.992;6.798;2023-04-29T08:48:16;101115.38;;;12.24;89.23
2178;BME280;1095;50.992;6.798;2023-04-29T08:50:44;101113.72;;;12.57;88.46
2178;BME280;1095;50.992;6.798;2023-04-29T08:53:12;101106.03;;;12.64;87.11
2178;BME280;1095;50.992;6.798;2023-04-29T08:55:41;101111.84;;;12.76;85.96
2178;BME280;1095;50.992;6.798;2023-04-29T08:58:08;101107.97;;;12.54;86.00
2178;BME280;1095;50.992;6.798;2023-04-29T09:00:35;101108.47;;;12.57;85.83
2178;BME280;1095;50.992;6.798;2023-04-29T09:03:09;101125.31;;;12.47;85.26
2178;BME280;1095;50.992;6.798;2023-04-29T09:05:37;101120.94;;;12.55;85.70
2178;BME280;1095;50.992;6.798;2023-04-29T09:08:07;101119.13;;;12.56;85.75
2178;BME280;1095;50.992;6.798;2023-04-29T09:10:35;101124.91;;;12.34;85.10
2178;BME280;1095;50.992;6.798;2023-04-29T09:13:02;101133.81;;;12.41;85.76
2178;BME280;1095;50.992;6.798;2023-04-29T09:15:28;101126.69;;;12.33;86.24
2178;BME280;1095;50.992;6.798;2023-04-29T09:18:00;101133.59;;;12.34;86.72
2178;BME280;1095;50.992;6.798;2023-04-29T09:20:30;101133.72;;;12.24;87.16
2178;BME280;1095;50.992;6.798;2023-04-29T09:22:58;101131.28;;;12.31;87.04
2178;BME280;1095;50.992;6.798;2023-04-29T09:25:27;101137.56;;;12.38;87.39
2178;BME280;1095;50.992;6.798;2023-04-29T09:27:54;101138.53;;;12.37;86.78
2178;BME280;1095;50.992;6.798;2023-04-29T09:30:21;101141.44;;;12.26;87.01
2178;BME280;1095;50.992;6.798;2023-04-29T09:33:06;101144.16;;;12.16;87.15
2178;BME280;1095;50.992;6.798;2023-04-29T09:35:33;101144.84;;;12.18;87.37
2178;BME280;1095;50.992;6.798;2023-04-29T09:38:10;101149.72;;;12.13;87.30
2178;BME280;1095;50.992;6.798;2023-04-29T09:40:41;101143.66;;;12.13;87.36
2178;BME280;1095;50.992;6.798;2023-04-29T09:43:12;101151.97;;;12.08;87.70
2178;BME280;1095;50.992;6.798;2023-04-29T09:45:41;101154.63;;;11.90;87.80
2178;BME280;1095;50.992;6.798;2023-04-29T09:48:09;101162.75;;;11.79;88.38
2178;BME280;1095;50.992;6.798;2023-04-29T09:50:37;101170.50;;;11.89;88.31
2178;BME280;1095;50.992;6.798;2023-04-29T09:53:04;101166.34;;;11.78;88.48
2178;BME280;1095;50.992;6.798;2023-04-29T09:55:33;101164.88;;;11.66;89.02
2178;BME280;1095;50.992;6.798;2023-04-29T09:58:01;101170.56;;;11.61;89.71
2178;BME280;1095;50.992;6.798;2023-04-29T10:00:30;101175.81;;;11.61;89.75
2178;BME280;1095;50.992;6.798;2023-04-29T10:02:59;101171.56;;;11.78;89.61
2178;BME280;1095;50.992;6.798;2023-04-29T10:05:27;101176.72;;;11.70;89.72
2178;BME280;1095;50.992;6.798;2023-04-29T10:07:55;101171.06;;;11.47;90.18
2178;BME280;1095;50.992;6.798;2023-04-29T10:10:23;101182.16;;;11.59;90.88
2178;BME280;1095;50.992;6.798;2023-04-29T10:12:51;101184.34;;;11.63;91.71
2178;BME280;1095;50.992;6.798;2023-04-29T10:15:25;101185.00;;;11.48;92.09
2178;BME280;1095;50.992;6.798;2023-04-29T10:17:57;101188.75;;;11.45;92.34
2178;BME280;1095;50.992;6.798;2023-04-29T10:20:25;101191.91;;;11.49;93.37
2178;BME280;1095;50.992;6.798;2023-04-29T10:22:53;101187.78;;;11.46;93.29
2178;BME280;1095;50.992;6.798;2023-04-29T10:25:22;101187.38;;;11.23;93.77
2178;BME280;1095;50.992;6.798;2023-04-29T10:27:49;101184.72;;;11.33;94.73
2178;BME280;1095;50.992;6.798;2023-04-29T10:30:18;101185.53;;;11.34;95.21
2178;BME280;1095;50.992;6.798;2023-04-29T10:32:48;101187.16;;;11.35;95.24
2178;BME280;1095;50.992;6.798;2023-04-29T10:35:16;101198.84;;;11.40;95.46
2178;BME280;1095;50.992;6.798;2023-04-29T10:37:44;101195.63;;;11.46;95.46
2178;BME280;1095;50.992;6.798;2023-04-29T10:40:15;101205.13;;;11.47;95.65
2178;BME280;1095;50.992;6.798;2023-04-29T10:42:46;101202.72;;;11.36;94.95
2178;BME280;1095;50.992;6.798;2023-04-29T10:45:20;101205.06;;;11.39;95.11
2178;BME280;1095;50.992;6.798;2023-04-29T10:48:10;101202.56;;;11.38;94.20
2178;BME280;1095;50.992;6.798;2023-04-29T10:51:00;101203.69;;;11.35;94.19
2178;BME280;1095;50.992;6.798;2023-04-29T10:53:28;101197.47;;;11.36;94.10
2178;BME280;1095;50.992;6.798;2023-04-29T10:56:02;101195.00;;;11.17;94.10
2178;BME280;1095;50.992;6.798;2023-04-29T10:58:38;101203.91;;;11.24;94.64
2178;BME280;1095;50.992;6.798;2023-04-29T11:01:05;101205.66;;;11.33;94.76
2178;BME280;1095;50.992;6.798;2023-04-29T11:03:46;101209.53;;;11.29;94.92
2178;BME280;1095;50.992;6.798;2023-04-29T11:06:14;101212.84;;;11.31;95.11
2178;BME280;1095;50.992;6.798;2023-04-29T11:08:43;101206.63;;;11.32;94.93
2178;BME280;1095;50.992;6.798;2023-04-29T11:11:12;101224.06;;;11.41;95.42
2178;BME280;1095;50.992;6.798;2023-04-29T11:13:44;101215.47;;;11.49;94.81
2178;BME280;1095;50.992;6.798;2023-04-29T11:16:11;101218.34;;;11.55;94.22
2178;BME280;1095;50.992;6.798;2023-04-29T11:19:07;101223.44;;;11.57;93.96
2178;BME280;1095;50.992;6.798;2023-04-29T11:21:34;101213.25;;;11.54;94.13
2178;BME280;1095;50.992;6.798;2023-04-29T11:24:01;101214.53;;;11.68;93.64
2178;BME280;1095;50.992;6.798;2023-04-29T11:26:30;101212.56;;;11.52;93.16
2178;BME280;1095;50.992;6.798;2023-04-29T11:28:57;101214.16;;;11.62;93.35
2178;BME280;1095;50.992;6.798;2023-04-29T11:31:29;101204.25;;;11.56;92.84
2178;BME280;1095;50.992;6.798;2023-04-29T11:33:56;101219.69;;;11.59;93.02
2178;BME280;1095;50.992;6.798;2023-04-29T11:36:25;101203.44;;;11.56;93.22
2178;BME280;1095;50.992;6.798;2023-04-29T11:38:52;101219.47;;;11.71;93.19
2178;BME280;1095;50.992;6.798;2023-04-29T11:41:20;101216.31;;;11.77;92.90
2178;BME280;1095;50.992;6.798;2023-04-29T11:43:54;101219.28;;;11.82;92.93
2178;BME280;1095;50.992;6.798;2023-04-29T11:46:20;101212.97;;;11.75;92.06
2178;BME280;1095;50.992;6.798;2023-04-29T11:48:48;101208.31;;;11.69;92.11
2178;BME280;1095;50.992;6.798;2023-04-29T11:51:16;101222.72;;;11.82;92.48
2178;BME280;1095;50.992;6.798;2023-04-29T11:53:44;101223.31;;;12.12;92.12
2178;BME280;1095;50.992;6.798;2023-04-29T11:56:11;101218.75;;;12.40;90.97
2178;BME280;1095;50.992;6.798;2023-04-29T11:58:38;101221.97;;;12.25;90.37
2178;BME280;1095;50.992;6.798;2023-04-29T12:01:04;101232.31;;;12.53;90.39
2178;BME280;1095;50.992;6.798;2023-04-29T12:03:32;101221.31;;;12.75;89.66
2178;BME280;1095;50.992;6.798;2023-04-29T12:06:00;101219.59;;;13.00;89.01
2178;BME280;1095;50.992;6.798;2023-04-29T12:08:28;101218.44;;;13.20;87.86
2178;BME280;1095;50.992;6.798;2023-04-29T12:10:58;101221.94;;;13.45;86.68
2178;BME280;1095;50.992;6.798;2023-04-29T12:13:26;101215.34;;;13.41;85.90
2178;BME280;1095;50.992;6.798;2023-04-29T12:15:54;101225.53;;;13.36;86.10
2178;BME280;1095;50.992;6.798;2023-04-29T12:18:21;101226.78;;;13.16;85.96
2178;BME280;1095;50.992;6.798;2023-04-29T12:20:48;101230.25;;;13.24;86.16
2178;BME280;1095;50.992;6.798;2023-04-29T12:23:18;101223.59;;;13.46;86.64
2178;BME280;1095;50.992;6.798;2023-04-29T12:25:48;101226.91;;;13.56;86.22
2178;BME280;1095;50.992;6.798;2023-04-29T12:28:17;101227.72;;;13.57;86.03
2178;BME280;1095;50.992;6.798;2023-04-29T12:30:43;101224.44;;;13.71;85.18
2178;BME280;1095;50.992;6.798;2023-04-29T12:33:15;101216.72;;;13.78;85.20
2178;BME280;1095;50.992;6.798;2023-04-29T12:35:44;101219.13;;;13.39;84.65
2178;BME280;1095;50.992;6.798;2023-04-29T12:38:15;101224.63;;;13.70;85.29
2178;BME280;1095;50.992;6.798;2023-04-29T12:40:43;101223.59;;;13.46;84.82
2178;BME280;1095;50.992;6.798;2023-04-29T12:43:10;101219.84;;;13.73;83.94
2178;BME280;1095;50.992;6.798;2023-04-29T12:45:39;101216.09;;;13.84;83.94
2178;BME280;1095;50.992;6.798;2023-04-29T12:48:06;101217.09;;;14.07;83.19
2178;BME280;1095;50.992;6.798;2023-04-29T12:50:34;101224.13;;;13.74;82.77
2178;BME280;1095;50.992;6.798;2023-04-29T12:53:02;101232.00;;;13.74;83.03
2178;BME280;1095;50.992;6.798;2023-04-29T12:55:31;101230.19;;;13.58;83.22
2178;BME280;1095;50.992;6.798;2023-04-29T12:57:59;101232.03;;;13.66;83.62
2178;BME280;1095;50.992;6.798;2023-04-29T13:00:26;101232.56;;;14.10;83.17
2178;BME280;1095;50.992;6.798;2023-04-29T13:02:54;101234.03;;;14.45;82.94
2178;BME280;1095;50.992;6.798;2023-04-29T13:05:21;101229.75;;;14.52;81.14
2178;BME280;1095;50.992;6.798;2023-04-29T13:07:48;101223.03;;;14.50;81.00
2178;BME280;1095;50.992;6.798;2023-04-29T13:10:14;101224.84;;;14.41;81.49
2178;BME280;1095;50.992;6.798;2023-04-29T13:12:42;101234.19;;;14.60;81.52
2178;BME280;1095;50.992;6.798;2023-04-29T13:15:09;101234.31;;;14.75;81.06
2178;BME280;1095;50.992;6.798;2023-04-29T13:17:36;101229.44;;;14.47;79.60